Overview Statistics Trail Chart Weather Telemetry Raw packets
 

This is the latest recevied weather packets stored in our database for station/object LRTR. If no packets are shown the sender has not sent any weather packets the latest 10 day(s).

<< 19 20 21 22 23 24 25 >>
Time Temp. Humidity Pressure Rain* Wind** Luminosity Snow
1777282385 16.11° C 36% 1023 hPa - - - -
1777281486 15° C 34% 1024 hPa - - - -
1777280585 15° C 34% 1024 hPa - - - -
1777279685 13.89° C 41% 1024 hPa - - - -
1777278785 13.89° C 41% 1024 hPa - - - -
1777277886 12.78° C 38% 1024 hPa - - - -
1777276985 12.78° C 38% 1024 hPa - - - -
1777276085 12.78° C 41% 1024 hPa - - - -
1777275185 12.78° C 41% 1024 hPa - - - -
1777274285 12.22° C 41% 1024 hPa - - - -
1777273385 12.22° C 41% 1024 hPa - - - -
1777272485 10° C 47% 1024 hPa - - - -
1777271586 10° C 47% 1024 hPa - - - -
1777270685 8.89° C 46% 1024 hPa - - - -
1777269785 8.89° C 46% 1024 hPa - - - -
1777268882 6.11° C 66% 1024 hPa - - - -
1777267985 6.11° C 66% 1024 hPa - - - -
1777267085 5° C 66% 1023 hPa - - - -
1777266208 5° C 66% 1023 hPa - - - -
1777265285 2.22° C 81% 1023 hPa - - - -
1777264459 2.22° C 75% 1023 hPa - - - -
1777263485 2.22° C 75% 1023 hPa - - - -
1777262585 2.22° C 75% 1023 hPa - - - -
1777261685 2.22° C 70% 1023 hPa - - - -
1777260822 2.22° C 70% 1023 hPa - - - -

* Rain since midnight (hover to see other rain measurements)
** Current wind speed in m/s (hover to see current wind gust speed)